Titania — 3EMI7 — position and weather

sailwx.info

Track history (hours):
 
Tides and Currents Weather Stations Pressure Air Temp Water Temp Dewpoint Dewpoint Depression Visibility Wind Speed Wind Dir Waves Ship Positions

Titania

Last reported at 2017-Sep-06 05:46 UTC. Time now 2017-Sep-26 01:54 UTC.
Position N 43°38' W 006°01'.
Warning: this ship's position is 19 days out of date.

Length 94 m; draft 4.2 m.

Type: Cargo ship. MMSI: 356032000.

Date/timePositionNaut miles runAvg speedWind from/ knotsBaromVisibWave heightAir tempDewpointWater temp
2017-Sep-06 05:46N 43°38' W 006°01'1 3.4
2017-Sep-06 05:24N 43°38' W 006°02'269 6.4
2017-Sep-04 11:24N 40°08' W 009°49'30 8.3
2017-Sep-04 07:51N 39°39' W 009°50'3 8.3
2017-Sep-04 07:26N 39°36' W 009°50'10 8.3
2017-Sep-04 06:12N 39°25' W 009°50'2 8.3
2017-Sep-04 05:59N 39°24' W 009°50'4 8.5
2017-Sep-04 05:30N 39°19' W 009°50'4 8.6
2017-Sep-04 05:00N 39°15' W 009°50'4 8.6
2017-Sep-04 04:30N 39°11' W 009°50'4 9.0
2017-Sep-04 04:00N 39°06' W 009°50'4 8.8
2017-Sep-04 03:30N 39°02' W 009°51'5 9.0
2017-Sep-04 03:00N 38°58' W 009°51'4 8.8
2017-Sep-04 02:30N 38°53' W 009°51'4 8.7
2017-Sep-04 02:00N 38°49' W 009°51'4 9.0
2017-Sep-04 01:30N 38°44' W 009°51'4 8.9
2017-Sep-04 01:00N 38°40' W 009°50'5 9.1
2017-Sep-04 00:30N 38°35' W 009°49'5 9.3
2017-Sep-04 00:00N 38°31' W 009°48'4 8.8
2017-Sep-03 23:30N 38°27' W 009°50'4 9.0
2017-Sep-03 23:00N 38°23' W 009°52'4 9.0
2017-Sep-03 22:30N 38°18' W 009°54'4 8.6
2017-Sep-03 22:00N 38°14' W 009°56'4 8.6
2017-Sep-03 21:30N 38°10' W 009°58'4 8.8
2017-Sep-03 21:00N 38°06' W 010°01'4 8.4
2017-Sep-03 20:30N 38°03' W 010°03'4 8.3
2017-Sep-03 20:00N 37°59' W 010°05'4 8.2
2017-Sep-03 19:29N 37°55' W 010°08'4 8.0
2017-Sep-03 19:00N 37°52' W 010°10'4 7.9
2017-Sep-03 18:30N 37°48' W 010°12'4 8.2
2017-Sep-03 18:00N 37°44' W 010°14'4 8.1
2017-Sep-03 17:29N 37°40' W 010°16'8 8.2
2017-Sep-03 16:28N 37°33' W 010°20'4 8.1
2017-Sep-03 16:00N 37°29' W 010°22'4 8.0
2017-Sep-03 15:30N 37°26' W 010°24'4 8.0
2017-Sep-03 15:00N 37°22' W 010°26'8 8.3
2017-Sep-03 14:00N 37°14' W 010°30'4 8.4
2017-Sep-03 13:30N 37°11' W 010°33'4 8.4
2017-Sep-03 13:00N 37°07' W 010°35'4 8.3
2017-Sep-03 12:30N 37°03' W 010°37'4 8.2
2017-Sep-03 12:00N 36°59' W 010°39'4 8.2
2017-Sep-03 11:30N 36°56' W 010°41'4 8.4
2017-Sep-03 11:00N 36°52' W 010°43'4 8.4
2017-Sep-03 10:30N 36°48' W 010°46'8 8.1
2017-Sep-03 09:28N 36°40' W 010°50'4 8.0
2017-Sep-03 08:59N 36°37' W 010°52'4 8.2
2017-Sep-03 08:30N 36°33' W 010°54'4 8.2
2017-Sep-03 08:00N 36°29' W 010°56'4 7.8
2017-Sep-03 07:30N 36°26' W 010°57'23 8.0
2017-Sep-03 04:36N 36°05' W 011°10'1 7.7
2017-Sep-03 04:30N 36°04' W 011°10'6 8.0
2017-Sep-03 03:48N 35°59' W 011°13'2 7.5
2017-Sep-03 03:28N 35°57' W 011°14'4 7.7
2017-Sep-03 02:55N 35°53' W 011°16'11 7.8
2017-Sep-03 01:31N 35°43' W 011°22'0 7.9
2017-Sep-03 01:28N 35°42' W 011°22'  
2017-Aug-30 22:28N 28°51' W 015°01'3 7.1
2017-Aug-30 22:00N 28°48' W 015°02'4 7.3
2017-Aug-30 21:30N 28°45' W 015°04'4 7.3
2017-Aug-30 21:00N 28°41' W 015°06'4 7.2
2017-Aug-30 20:30N 28°38' W 015°07'4 7.2
2017-Aug-30 20:00N 28°35' W 015°09'4 7.3
2017-Aug-30 19:30N 28°31' W 015°11'4 7.1
2017-Aug-30 19:00N 28°28' W 015°12'4 7.2
2017-Aug-30 18:30N 28°25' W 015°14'4 7.5
2017-Aug-30 18:00N 28°21' W 015°16'4 7.6
2017-Aug-30 17:30N 28°18' W 015°18'4 7.6
2017-Aug-30 17:00N 28°15' W 015°19'4 7.7
2017-Aug-30 16:29N 28°11' W 015°21'4 7.4
2017-Aug-30 16:00N 28°07' W 015°23'2 3.6
2017-Aug-30 15:28N 28°08' W 015°24'0 0.0
2017-Aug-30 14:58N 28°08' W 015°24'0 0.0
2017-Aug-30 14:28N 28°08' W 015°24'0 0.0
2017-Aug-30 14:00N 28°08' W 015°24'0 0.0
2017-Aug-30 13:26N 28°08' W 015°24'0 0.0
2017-Aug-30 13:00N 28°08' W 015°24'0 0.0
2017-Aug-30 12:29N 28°08' W 015°24'0 0.0
2017-Aug-30 11:59N 28°08' W 015°24'0 0.0
2017-Aug-30 11:29N 28°08' W 015°24'0 0.0
2017-Aug-30 10:47N 28°08' W 015°24'0 0.0
2017-Aug-30 10:30N 28°08' W 015°24'0 0.0
2017-Aug-30 09:06N 28°08' W 015°24'0 0.0
2017-Aug-30 08:57N 28°08' W 015°24'  
Track history (hours):
 
Tides and Currents Weather Stations Pressure Air Temp Water Temp Dewpoint Dewpoint Depression Visibility Wind Speed Wind Dir Waves Ship Positions

Titania

Last reported at 2017-Sep-06 05:46 UTC. Time now 2017-Sep-26 01:54 UTC.
Position N 43°38' W 006°01'.
Warning: this ship's position is 19 days out of date.

Length 94 m; draft 4.2 m.

Type: Cargo ship. MMSI: 356032000.

Date/timePositionNaut miles runAvg speedWind from/ knotsBaromVisibWave heightAir tempDewpointWater temp
2017-Sep-06 05:46N 43°38' W 006°01'1 3.4
2017-Sep-06 05:24N 43°38' W 006°02'269 6.4
2017-Sep-04 11:24N 40°08' W 009°49'30 8.3
2017-Sep-04 07:51N 39°39' W 009°50'3 8.3
2017-Sep-04 07:26N 39°36' W 009°50'10 8.3
2017-Sep-04 06:12N 39°25' W 009°50'2 8.3
2017-Sep-04 05:59N 39°24' W 009°50'4 8.5
2017-Sep-04 05:30N 39°19' W 009°50'4 8.6
2017-Sep-04 05:00N 39°15' W 009°50'4 8.6
2017-Sep-04 04:30N 39°11' W 009°50'4 9.0
2017-Sep-04 04:00N 39°06' W 009°50'4 8.8
2017-Sep-04 03:30N 39°02' W 009°51'5 9.0
2017-Sep-04 03:00N 38°58' W 009°51'4 8.8
2017-Sep-04 02:30N 38°53' W 009°51'4 8.7
2017-Sep-04 02:00N 38°49' W 009°51'4 9.0
2017-Sep-04 01:30N 38°44' W 009°51'4 8.9
2017-Sep-04 01:00N 38°40' W 009°50'5 9.1
2017-Sep-04 00:30N 38°35' W 009°49'5 9.3
2017-Sep-04 00:00N 38°31' W 009°48'4 8.8
2017-Sep-03 23:30N 38°27' W 009°50'4 9.0
2017-Sep-03 23:00N 38°23' W 009°52'4 9.0
2017-Sep-03 22:30N 38°18' W 009°54'4 8.6
2017-Sep-03 22:00N 38°14' W 009°56'4 8.6
2017-Sep-03 21:30N 38°10' W 009°58'4 8.8
2017-Sep-03 21:00N 38°06' W 010°01'4 8.4
2017-Sep-03 20:30N 38°03' W 010°03'4 8.3
2017-Sep-03 20:00N 37°59' W 010°05'4 8.2
2017-Sep-03 19:29N 37°55' W 010°08'4 8.0
2017-Sep-03 19:00N 37°52' W 010°10'4 7.9
2017-Sep-03 18:30N 37°48' W 010°12'4 8.2
2017-Sep-03 18:00N 37°44' W 010°14'4 8.1
2017-Sep-03 17:29N 37°40' W 010°16'8 8.2
2017-Sep-03 16:28N 37°33' W 010°20'4 8.1
2017-Sep-03 16:00N 37°29' W 010°22'4 8.0
2017-Sep-03 15:30N 37°26' W 010°24'4 8.0
2017-Sep-03 15:00N 37°22' W 010°26'8 8.3
2017-Sep-03 14:00N 37°14' W 010°30'4 8.4
2017-Sep-03 13:30N 37°11' W 010°33'4 8.4
2017-Sep-03 13:00N 37°07' W 010°35'4 8.3
2017-Sep-03 12:30N 37°03' W 010°37'4 8.2
2017-Sep-03 12:00N 36°59' W 010°39'4 8.2
2017-Sep-03 11:30N 36°56' W 010°41'4 8.4
2017-Sep-03 11:00N 36°52' W 010°43'4 8.4
2017-Sep-03 10:30N 36°48' W 010°46'8 8.1
2017-Sep-03 09:28N 36°40' W 010°50'4 8.0
2017-Sep-03 08:59N 36°37' W 010°52'4 8.2
2017-Sep-03 08:30N 36°33' W 010°54'4 8.2
2017-Sep-03 08:00N 36°29' W 010°56'4 7.8
2017-Sep-03 07:30N 36°26' W 010°57'23 8.0
2017-Sep-03 04:36N 36°05' W 011°10'1 7.7
2017-Sep-03 04:30N 36°04' W 011°10'6 8.0
2017-Sep-03 03:48N 35°59' W 011°13'2 7.5
2017-Sep-03 03:28N 35°57' W 011°14'4 7.7
2017-Sep-03 02:55N 35°53' W 011°16'11 7.8
2017-Sep-03 01:31N 35°43' W 011°22'0 7.9
2017-Sep-03 01:28N 35°42' W 011°22'  
2017-Aug-30 22:28N 28°51' W 015°01'3 7.1
2017-Aug-30 22:00N 28°48' W 015°02'4 7.3
2017-Aug-30 21:30N 28°45' W 015°04'4 7.3
2017-Aug-30 21:00N 28°41' W 015°06'4 7.2
2017-Aug-30 20:30N 28°38' W 015°07'4 7.2
2017-Aug-30 20:00N 28°35' W 015°09'4 7.3
2017-Aug-30 19:30N 28°31' W 015°11'4 7.1
2017-Aug-30 19:00N 28°28' W 015°12'4 7.2
2017-Aug-30 18:30N 28°25' W 015°14'4 7.5
2017-Aug-30 18:00N 28°21' W 015°16'4 7.6
2017-Aug-30 17:30N 28°18' W 015°18'4 7.6
2017-Aug-30 17:00N 28°15' W 015°19'4 7.7
2017-Aug-30 16:29N 28°11' W 015°21'4 7.4
2017-Aug-30 16:00N 28°07' W 015°23'2 3.6
2017-Aug-30 15:28N 28°08' W 015°24'0 0.0
2017-Aug-30 14:58N 28°08' W 015°24'0 0.0
2017-Aug-30 14:28N 28°08' W 015°24'0 0.0
2017-Aug-30 14:00N 28°08' W 015°24'0 0.0
2017-Aug-30 13:26N 28°08' W 015°24'0 0.0
2017-Aug-30 13:00N 28°08' W 015°24'0 0.0
2017-Aug-30 12:29N 28°08' W 015°24'0 0.0
2017-Aug-30 11:59N 28°08' W 015°24'0 0.0
2017-Aug-30 11:29N 28°08' W 015°24'0 0.0
2017-Aug-30 10:47N 28°08' W 015°24'0 0.0
2017-Aug-30 10:30N 28°08' W 015°24'0 0.0
2017-Aug-30 09:06N 28°08' W 015°24'0 0.0
2017-Aug-30 08:57N 28°08' W 015°24'  

Dump ship's entire track history